This is the latest recevied weather packets stored in our database for station/object CT2IRJ-11. If no packets are shown the sender has not sent any weather packets the latest 1 day(s).
| Time | Temp. | Humidity | Pressure | Rain* | Wind** | Luminosity | Snow |
|---|---|---|---|---|---|---|---|
| 1778076510 | 21.11° C | 51% | 1011.9 hPa | 0 mm | - | 199 W/m² | - |
| 1778076212 | 21.67° C | 51% | 1011.9 hPa | 0 mm | - | 184 W/m² | - |
| 1778075910 | 21.11° C | 49% | 1011.9 hPa | 0 mm | - | 188 W/m² | - |
| 1778074710 | 22.22° C | 46% | 1012.2 hPa | 0 mm | - | 245 W/m² | - |
| 1778074410 | 22.78° C | 45% | 1011.9 hPa | 0 mm | - | 224 W/m² | - |
| 1778074110 | 22.78° C | 44% | 1011.9 hPa | 0 mm | - | 234 W/m² | - |
| 1778073210 | 24.44° C | 43% | 1012.5 hPa | 0 mm | - | 751 W/m² | - |
| 1778072610 | 23.33° C | 45% | 1012.5 hPa | 0 mm | - | 843 W/m² | - |
| 1778072010 | 23.89° C | 44% | 1012.2 hPa | 0 mm | - | 801 W/m² | - |
| 1778071710 | 24.44° C | 42% | 1012.5 hPa | 0 mm | - | 817 W/m² | - |
| 1778071110 | 22.78° C | 44% | 1012.9 hPa | 0 mm | - | 712 W/m² | - |
| 1778070810 | 21.67° C | 46% | 1012.9 hPa | 0 mm | - | 282 W/m² | - |
| 1778069911 | 22.78° C | 44% | 1012.9 hPa | 0 mm | - | 856 W/m² | - |
| 1778067510 | 21.67° C | 46% | 1013.2 hPa | 0 mm | - | 203 W/m² | - |
| 1778067210 | 22.78° C | 46% | 1013.2 hPa | 0 mm | - | 208 W/m² | - |
| 1778065710 | 22.78° C | 47% | 1013.9 hPa | 0 mm | - | 172 W/m² | - |
| 1778065110 | 22.22° C | 50% | 1013.5 hPa | 0 mm | - | 760 W/m² | - |
| 1778064813 | 21.67° C | 46% | 1013.5 hPa | 0 mm | - | 699 W/m² | - |
| 1778064511 | 21.67° C | 50% | 1013.9 hPa | 0 mm | - | 706 W/m² | - |
| 1778063610 | 22.22° C | 51% | 1013.9 hPa | 0 mm | - | 770 W/m² | - |
| 1778062410 | 21.11° C | 56% | 1013.9 hPa | 0 mm | - | 838 W/m² | - |
| 1778062110 | 20.56° C | 58% | 1013.9 hPa | 0 mm | - | 779 W/m² | - |
| 1778061510 | 21.11° C | 57% | 1013.9 hPa | 0 mm | - | 763 W/m² | - |
| 1778061212 | 20.56° C | 58% | 1013.9 hPa | 0 mm | - | 782 W/m² | - |
| 1778060610 | 20.56° C | 60% | 1014.2 hPa | 0 mm | - | 747 W/m² | - |
* Rain latest hour (hover to see other rain measurements)
** Current wind speed in m/s (hover to see current wind gust speed)